This is the latest recevied weather packets stored in our database for station/object W4DHW-4. If no packets are shown the sender has not sent any weather packets the latest 1 day(s).
| Time | Temp. | Humidity | Pressure | Rain* | Wind** | Luminosity | Snow |
|---|---|---|---|---|---|---|---|
| 1836274696 | 17.22° C | 87% | 1020.4 hPa | 0 mm | 0.89 m/s, 302° | 0 W/m² | - |
| 1836274549 | 16.67° C | 88% | 1020.3 hPa | 0 mm | 0.45 m/s, 295° | 0 W/m² | - |
| 1836274394 | 17.22° C | 87% | 1020.4 hPa | 0 mm | 0.45 m/s, 298° | 0 W/m² | - |
| 1836274247 | 16.67° C | 88% | 1020.1 hPa | 0 mm | 1.34 m/s, 296° | 0 W/m² | - |
| 1836274092 | 17.22° C | 88% | 1020 hPa | 0 mm | 1.34 m/s, 298° | 0 W/m² | - |
| 1778041495 | 20.56° C | 49% | 1012.1 hPa | 0 mm | 0 m/s | 0 W/m² | - |
| 1778041192 | 20.56° C | 48% | 1012.3 hPa | 0 mm | 0.45 m/s, 236° | 0 W/m² | - |
| 1778040890 | 21.11° C | 47% | 1012.3 hPa | 0 mm | 0.45 m/s, 261° | 0 W/m² | - |
| 1778040587 | 21.11° C | 47% | 1012.4 hPa | 0 mm | 0.45 m/s, 250° | 0 W/m² | - |
| 1778040285 | 21.11° C | 47% | 1012.4 hPa | 0 mm | 0.45 m/s, 247° | 0 W/m² | - |
| 1778039980 | 21.11° C | 47% | 1012.1 hPa | 0 mm | 0 m/s | 0 W/m² | - |
| 1778039678 | 21.11° C | 46% | 1012.5 hPa | 0 mm | 0.45 m/s, 247° | 0 W/m² | - |
| 1778039374 | 21.67° C | 46% | 1012.6 hPa | 0 mm | 0.45 m/s, 233° | 0 W/m² | - |
| 1778039072 | 21.67° C | 46% | 1012.5 hPa | 0 mm | 1.34 m/s, 221° | 0 W/m² | - |
| 1778038769 | 21.67° C | 45% | 1012.3 hPa | 0 mm | 1.34 m/s, 206° | 0 W/m² | - |
| 1778038466 | 21.67° C | 46% | 1012.4 hPa | 0 mm | 0.89 m/s, 218° | 0 W/m² | - |
| 1778038163 | 21.67° C | 45% | 1012.4 hPa | 0 mm | 0.89 m/s, 258° | 0 W/m² | - |
| 1778037860 | 21.67° C | 45% | 1012.4 hPa | 0 mm | 0.45 m/s, 235° | 0 W/m² | - |
| 1778037556 | 21.67° C | 45% | 1012.6 hPa | 0 mm | 0.89 m/s, 251° | 0 W/m² | - |
| 1778037254 | 22.22° C | 44% | 1012.5 hPa | 0 mm | 1.34 m/s, 223° | 0 W/m² | - |
| 1778036951 | 22.22° C | 44% | 1012.5 hPa | 0 mm | 0.45 m/s, 245° | 0 W/m² | - |
| 1778036649 | 22.22° C | 44% | 1012.4 hPa | 0 mm | 3.13 m/s, 202° | 0 W/m² | - |
| 1778036346 | 22.22° C | 43% | 1012.7 hPa | 0 mm | 3.58 m/s, 191° | 0 W/m² | - |
| 1778036043 | 22.22° C | 43% | 1012.9 hPa | 0 mm | 2.24 m/s, 299° | 0 W/m² | - |
| 1778035740 | 22.22° C | 44% | 1012.7 hPa | 0 mm | 1.34 m/s, 243° | 0 W/m² | - |
* Rain latest hour (hover to see other rain measurements)
** Current wind speed in m/s (hover to see current wind gust speed)